F/V Oceanis — FHLH — position and weather

sailwx.info

Track history (hours):
 
Tides and Currents Weather Stations Pressure Air Temp Water Temp Dewpoint Dewpoint Depression Visibility Wind Speed Wind Dir Waves Ship Positions

F/V Oceanis

Last reported at 2017-May-24 07:35 UTC. Time now 2017-May-30 12:55 UTC.
Position N 44°39' W 001°09'.

Type: Other ship. MMSI: 228385000.

Date/timePositionNaut miles runAvg speedWind from/ knotsBaromVisibWave heightAir tempDewpointWater temp
2017-May-24 07:35N 44°39' W 001°09'0 0.0
2017-May-24 07:30N 44°39' W 001°09'0 0.0
2017-May-24 07:00N 44°39' W 001°09'0 0.0
2017-May-24 06:30N 44°39' W 001°09'0 0.0
2017-May-24 06:00N 44°39' W 001°09'0 0.0
2017-May-24 05:30N 44°39' W 001°09'0 0.0
2017-May-24 05:00N 44°39' W 001°09'0 0.0
2017-May-24 04:30N 44°39' W 001°09'0 0.0
2017-May-24 04:00N 44°39' W 001°09'0 0.0
2017-May-24 03:30N 44°39' W 001°09'0 0.0
2017-May-24 03:00N 44°39' W 001°09'0 0.0
2017-May-24 02:30N 44°39' W 001°09'0 0.0
2017-May-24 02:00N 44°39' W 001°09'0 0.0
2017-May-24 01:30N 44°39' W 001°09'0 0.0
2017-May-24 01:00N 44°39' W 001°09'0 0.0
2017-May-24 00:30N 44°39' W 001°09'0 0.0
2017-May-24 00:00N 44°39' W 001°09'0 0.0
2017-May-23 23:30N 44°39' W 001°09'0 0.0
2017-May-23 23:00N 44°39' W 001°09'0 0.0
2017-May-23 22:30N 44°39' W 001°09'0 0.0
2017-May-23 22:00N 44°39' W 001°09'0 0.0
2017-May-23 21:30N 44°39' W 001°09'0 0.0
2017-May-23 21:00N 44°39' W 001°09'0 0.0
2017-May-23 20:30N 44°39' W 001°09'0 0.0
2017-May-23 20:00N 44°39' W 001°09'0 0.0
2017-May-23 19:30N 44°39' W 001°09'0 0.0
2017-May-23 19:00N 44°39' W 001°09'0 0.0
2017-May-23 18:30N 44°39' W 001°09'0 0.0
2017-May-23 18:00N 44°39' W 001°09'1 2.2
2017-May-23 17:30N 44°40' W 001°10'3 5.7
2017-May-23 17:00N 44°39' W 001°13'3 5.4
2017-May-23 16:30N 44°36' W 001°14'3 5.4
2017-May-23 16:00N 44°34' W 001°17'4 7.7
2017-May-23 15:30N 44°38' W 001°17'4 8.7
2017-May-23 15:00N 44°42' W 001°16'4 8.8
2017-May-23 14:30N 44°47' W 001°15'15 4.0
2017-May-23 10:49N 45°01' W 001°15'2 0.4
2017-May-23 06:23N 44°60' W 001°15'1 1.4
2017-May-23 05:51N 44°59' W 001°15'1 0.7
2017-May-23 04:02N 44°58' W 001°14'0 0.0
2017-May-23 03:58N 44°58' W 001°14'0 0.0
2017-May-23 02:59N 44°58' W 001°14'0 0.0
2017-May-23 02:28N 44°58' W 001°14'0 0.0
2017-May-23 01:56N 44°58' W 001°14'0 0.0
2017-May-23 01:30N 44°58' W 001°14'0 0.0
2017-May-23 00:55N 44°58' W 001°14'0 0.0
2017-May-23 00:12N 44°58' W 001°14'0 0.0
2017-May-22 23:35N 44°58' W 001°14'0 0.0
2017-May-22 17:02N 44°58' W 001°14'2 4.8
2017-May-22 16:42N 44°59' W 001°15'0 2.5
2017-May-22 16:30N 44°60' W 001°15'1 0.7
2017-May-22 14:38N 45°01' W 001°15'1 0.2
2017-May-22 11:30N 45°02' W 001°15'0 0.5
2017-May-22 10:45N 45°01' W 001°15'0 1.3
2017-May-22 10:30N 45°01' W 001°15'1 1.2
2017-May-22 09:32N 45°00' W 001°15'0 2.3
2017-May-22 09:30N 45°00' W 001°15'0 0.4
2017-May-22 08:51N 44°60' W 001°15'1 0.8
2017-May-22 07:55N 44°59' W 001°15'1 1.4
2017-May-22 07:17N 44°58' W 001°15'1 2.4
2017-May-22 06:49N 44°58' W 001°16'1 2.7
2017-May-22 06:31N 44°58' W 001°15'0 0.5
2017-May-22 06:00N 44°58' W 001°15'0 0.5
2017-May-22 05:30N 44°58' W 001°16'0 0.0
2017-May-22 03:57N 44°58' W 001°16'0 0.0
2017-May-22 03:19N 44°58' W 001°16'0 0.0
2017-May-22 03:00N 44°58' W 001°16'0 0.0
2017-May-22 02:30N 44°58' W 001°16'0 0.0
2017-May-22 01:04N 44°58' W 001°16'0 0.0
2017-May-22 00:55N 44°58' W 001°16'0 0.0
2017-May-21 23:27N 44°58' W 001°16'0 0.0
2017-May-21 22:55N 44°58' W 001°16'0 0.0
2017-May-21 22:17N 44°58' W 001°16'0 0.0
2017-May-21 21:27N 44°58' W 001°16'0 0.0
2017-May-21 20:46N 44°58' W 001°16'0 0.0
2017-May-21 20:25N 44°58' W 001°16'0 0.0
2017-May-21 20:00N 44°58' W 001°16'0 0.0
2017-May-21 19:27N 44°58' W 001°16'1 0.1
2017-May-21 10:45N 44°58' W 001°15'1 0.4
2017-May-21 08:49N 44°59' W 001°14'1 3.0
2017-May-21 08:28N 44°58' W 001°16'1 2.4
2017-May-21 08:00N 44°59' W 001°15'2 2.9
2017-May-21 07:20N 45°01' W 001°15'3 1.9
2017-May-21 05:41N 44°58' W 001°16'1 2.6
2017-May-21 05:29N 44°59' W 001°16'0 0.1
2017-May-21 02:24N 44°59' W 001°16'0 0.0
2017-May-21 01:59N 44°59' W 001°16'0 0.0
2017-May-20 22:28N 44°59' W 001°16'0 0.0
2017-May-20 21:55N 44°59' W 001°16'0 0.0
2017-May-20 21:28N 44°59' W 001°16'0 0.0
2017-May-20 21:00N 44°59' W 001°16'0 0.0
2017-May-20 20:22N 44°59' W 001°16'0 0.0
2017-May-20 20:00N 44°59' W 001°16'0 0.0
2017-May-20 19:30N 44°59' W 001°16'0 0.0
2017-May-20 18:49N 44°59' W 001°16'0 0.0
2017-May-20 18:27N 44°59' W 001°16'0 0.0
2017-May-20 17:53N 44°59' W 001°16'1 0.7
2017-May-20 15:57N 44°58' W 001°15'1 1.2
2017-May-20 15:12N 44°58' W 001°16'6 3.3
2017-May-20 13:26N 44°52' W 001°16'4 8.5
2017-May-20 13:00N 44°49' W 001°17'4 8.5
2017-May-20 12:30N 44°44' W 001°18'4 8.4
2017-May-20 12:00N 44°40' W 001°18'4 8.5
2017-May-20 11:30N 44°36' W 001°18'2 4.6
2017-May-20 11:00N 44°35' W 001°15'4 7.7
2017-May-20 10:30N 44°39' W 001°14'3 6.0
2017-May-20 10:00N 44°40' W 001°10'1 2.6
2017-May-20 09:30N 44°39' W 001°09'0 0.0
2017-May-19 15:23N 44°39' W 001°09'0 0.0
2017-May-19 14:58N 44°39' W 001°09'0 0.0
2017-May-19 14:00N 44°39' W 001°09'0 0.0
2017-May-19 13:30N 44°39' W 001°09'0 0.0
2017-May-19 13:00N 44°39' W 001°09'0 0.0
2017-May-19 12:30N 44°39' W 001°09'0 0.0
2017-May-19 12:00N 44°39' W 001°09'0 0.0
2017-May-19 11:30N 44°39' W 001°09'0 0.0
2017-May-19 11:00N 44°39' W 001°09'0 0.0
2017-May-19 10:30N 44°39' W 001°09'0 0.0
2017-May-19 10:00N 44°39' W 001°09'0 0.0
2017-May-19 09:30N 44°39' W 001°09'0 0.0
2017-May-19 09:00N 44°39' W 001°09'0 0.0
2017-May-19 08:30N 44°39' W 001°09'0 0.0
2017-May-19 08:00N 44°39' W 001°09'0 0.0
2017-May-19 07:30N 44°39' W 001°09'0 0.0
2017-May-19 07:00N 44°39' W 001°09'0 0.0
2017-May-19 06:30N 44°39' W 001°09'0 0.0
2017-May-19 05:59N 44°39' W 001°09'0 0.0
2017-May-19 05:30N 44°39' W 001°09'0 0.0
2017-May-19 05:00N 44°39' W 001°09'0 0.0
2017-May-19 04:30N 44°39' W 001°09'0 0.0
2017-May-19 04:00N 44°39' W 001°09'0 0.0
2017-May-19 03:30N 44°39' W 001°09'0 0.0
2017-May-19 03:00N 44°39' W 001°09'0 0.0
2017-May-19 02:30N 44°39' W 001°09'0 0.0
2017-May-19 02:00N 44°39' W 001°09'0 0.0
2017-May-19 01:30N 44°39' W 001°09'0 0.0
2017-May-19 01:00N 44°39' W 001°09'0 0.0
2017-May-19 00:30N 44°39' W 001°09'0 0.0
2017-May-19 00:00N 44°39' W 001°09'0 0.0
2017-May-18 23:28N 44°39' W 001°09'0 0.2
2017-May-18 23:00N 44°39' W 001°09'0 0.5
2017-May-18 22:31N 44°40' W 001°09'3 6.6
2017-May-18 22:00N 44°39' W 001°14'4 8.4
2017-May-18 21:30N 44°35' W 001°15'3 5.1
2017-May-18 21:00N 44°37' W 001°18'5 9.2
2017-May-18 20:30N 44°41' W 001°17'3 6.1
2017-May-18 20:00N 44°44' W 001°17'4 8.9
2017-May-18 19:30N 44°49' W 001°16'4 8.9
2017-May-18 19:00N 44°53' W 001°15'7 1.3
2017-May-18 13:53N 44°60' W 001°15'10 0.5
2017-May-17 18:21N 44°50' W 001°14'3 9.0
2017-May-17 18:00N 44°46' W 001°15'4 9.0
2017-May-17 17:30N 44°42' W 001°16'6 0.3
2017-May-16 19:24N 44°39' W 001°09'0 0.0
2017-May-16 19:00N 44°39' W 001°09'0 0.0
2017-May-16 18:30N 44°39' W 001°09'0 0.0
2017-May-16 18:00N 44°39' W 001°09'0 0.1
2017-May-16 17:30N 44°39' W 001°09'0 0.0
2017-May-16 17:00N 44°39' W 001°09'0 0.6
2017-May-16 16:30N 44°40' W 001°09'4 7.7
2017-May-16 16:01N 44°38' W 001°14'5 9.1
2017-May-16 15:30N 44°34' W 001°17'4 8.8
2017-May-16 15:00N 44°38' W 001°17'9 9.0
2017-May-16 14:00N 44°47' W 001°15'5 9.0
2017-May-16 13:30N 44°52' W 001°15'5 9.0
2017-May-16 13:00N 44°56' W 001°14'3 4.7
2017-May-16 12:19N 44°60' W 001°14'1 2.7
2017-May-16 11:49N 44°58' W 001°14'0 1.2
2017-May-16 11:30N 44°58' W 001°15'1 1.7
2017-May-16 11:01N 44°59' W 001°15'1 1.0
2017-May-16 09:49N 44°58' W 001°15'1 2.7
2017-May-16 09:28N 44°59' W 001°15'3 1.2
2017-May-16 07:13N 45°01' W 001°13'1 3.2
2017-May-16 06:53N 45°02' W 001°12'1 1.0
2017-May-16 06:12N 45°01' W 001°12'0 0.1
2017-May-16 00:34N 45°01' W 001°13'0 0.0
2017-May-16 00:23N 45°01' W 001°13'0 0.0
2017-May-16 00:00N 45°01' W 001°13'3 0.6
2017-May-15 18:03N 44°58' W 001°13'0 1.2
2017-May-15 17:47N 44°58' W 001°13'0 0.2
2017-May-15 16:59N 44°58' W 001°13'0 0.0
2017-May-15 16:28N 44°58' W 001°13'0 0.0
2017-May-15 15:58N 44°58' W 001°13'0 0.0
2017-May-15 15:01N 44°58' W 001°13'0 0.0
2017-May-15 14:31N 44°58' W 001°13'1 1.2
2017-May-15 13:30N 44°58' W 001°15'1 1.0
2017-May-15 12:57N 44°58' W 001°15'0 0.8
2017-May-15 12:29N 44°58' W 001°15'1 0.3
2017-May-15 09:06N 44°59' W 001°15'0 3.1
2017-May-15 09:00N 44°59' W 001°15'2 2.9
2017-May-15 08:25N 45°01' W 001°15'0 0.3
2017-May-15 07:45N 45°01' W 001°15'1 2.4
2017-May-15 07:29N 45°00' W 001°15'1 2.0
2017-May-15 06:55N 44°59' W 001°15'1 2.7
2017-May-15 06:30N 44°58' W 001°15'1 0.1
2017-May-14 18:24N 44°59' W 001°15'1 0.9
2017-May-14 17:27N 44°58' W 001°15'3 3.4
2017-May-14 16:42N 44°60' W 001°13'1 4.7
2017-May-14 16:30N 45°00' W 001°14'12 8.3
2017-May-14 15:02N 45°02' W 001°31'0 1.7
2017-May-14 14:48N 45°02' W 001°31'0 0.2
2017-May-14 14:26N 45°02' W 001°32'3 2.6
2017-May-14 13:28N 45°04' W 001°33'4 8.7
2017-May-14 13:00N 45°08' W 001°35'5 8.3
2017-May-14 12:25N 45°13' W 001°37'4 8.5
2017-May-14 12:00N 45°16' W 001°38'20 5.3
2017-May-14 08:15N 45°23' W 001°11'0 0.3
2017-May-14 07:53N 45°23' W 001°11'  
Track history (hours):
 
Tides and Currents Weather Stations Pressure Air Temp Water Temp Dewpoint Dewpoint Depression Visibility Wind Speed Wind Dir Waves Ship Positions

F/V Oceanis

Last reported at 2017-May-24 07:35 UTC. Time now 2017-May-30 12:55 UTC.
Position N 44°39' W 001°09'.

Type: Other ship. MMSI: 228385000.

Date/timePositionNaut miles runAvg speedWind from/ knotsBaromVisibWave heightAir tempDewpointWater temp
2017-May-24 07:35N 44°39' W 001°09'0 0.0
2017-May-24 07:30N 44°39' W 001°09'0 0.0
2017-May-24 07:00N 44°39' W 001°09'0 0.0
2017-May-24 06:30N 44°39' W 001°09'0 0.0
2017-May-24 06:00N 44°39' W 001°09'0 0.0
2017-May-24 05:30N 44°39' W 001°09'0 0.0
2017-May-24 05:00N 44°39' W 001°09'0 0.0
2017-May-24 04:30N 44°39' W 001°09'0 0.0
2017-May-24 04:00N 44°39' W 001°09'0 0.0
2017-May-24 03:30N 44°39' W 001°09'0 0.0
2017-May-24 03:00N 44°39' W 001°09'0 0.0
2017-May-24 02:30N 44°39' W 001°09'0 0.0
2017-May-24 02:00N 44°39' W 001°09'0 0.0
2017-May-24 01:30N 44°39' W 001°09'0 0.0
2017-May-24 01:00N 44°39' W 001°09'0 0.0
2017-May-24 00:30N 44°39' W 001°09'0 0.0
2017-May-24 00:00N 44°39' W 001°09'0 0.0
2017-May-23 23:30N 44°39' W 001°09'0 0.0
2017-May-23 23:00N 44°39' W 001°09'0 0.0
2017-May-23 22:30N 44°39' W 001°09'0 0.0
2017-May-23 22:00N 44°39' W 001°09'0 0.0
2017-May-23 21:30N 44°39' W 001°09'0 0.0
2017-May-23 21:00N 44°39' W 001°09'0 0.0
2017-May-23 20:30N 44°39' W 001°09'0 0.0
2017-May-23 20:00N 44°39' W 001°09'0 0.0
2017-May-23 19:30N 44°39' W 001°09'0 0.0
2017-May-23 19:00N 44°39' W 001°09'0 0.0
2017-May-23 18:30N 44°39' W 001°09'0 0.0
2017-May-23 18:00N 44°39' W 001°09'1 2.2
2017-May-23 17:30N 44°40' W 001°10'3 5.7
2017-May-23 17:00N 44°39' W 001°13'3 5.4
2017-May-23 16:30N 44°36' W 001°14'3 5.4
2017-May-23 16:00N 44°34' W 001°17'4 7.7
2017-May-23 15:30N 44°38' W 001°17'4 8.7
2017-May-23 15:00N 44°42' W 001°16'4 8.8
2017-May-23 14:30N 44°47' W 001°15'15 4.0
2017-May-23 10:49N 45°01' W 001°15'2 0.4
2017-May-23 06:23N 44°60' W 001°15'1 1.4
2017-May-23 05:51N 44°59' W 001°15'1 0.7
2017-May-23 04:02N 44°58' W 001°14'0 0.0
2017-May-23 03:58N 44°58' W 001°14'0 0.0
2017-May-23 02:59N 44°58' W 001°14'0 0.0
2017-May-23 02:28N 44°58' W 001°14'0 0.0
2017-May-23 01:56N 44°58' W 001°14'0 0.0
2017-May-23 01:30N 44°58' W 001°14'0 0.0
2017-May-23 00:55N 44°58' W 001°14'0 0.0
2017-May-23 00:12N 44°58' W 001°14'0 0.0
2017-May-22 23:35N 44°58' W 001°14'0 0.0
2017-May-22 17:02N 44°58' W 001°14'2 4.8
2017-May-22 16:42N 44°59' W 001°15'0 2.5
2017-May-22 16:30N 44°60' W 001°15'1 0.7
2017-May-22 14:38N 45°01' W 001°15'1 0.2
2017-May-22 11:30N 45°02' W 001°15'0 0.5
2017-May-22 10:45N 45°01' W 001°15'0 1.3
2017-May-22 10:30N 45°01' W 001°15'1 1.2
2017-May-22 09:32N 45°00' W 001°15'0 2.3
2017-May-22 09:30N 45°00' W 001°15'0 0.4
2017-May-22 08:51N 44°60' W 001°15'1 0.8
2017-May-22 07:55N 44°59' W 001°15'1 1.4
2017-May-22 07:17N 44°58' W 001°15'1 2.4
2017-May-22 06:49N 44°58' W 001°16'1 2.7
2017-May-22 06:31N 44°58' W 001°15'0 0.5
2017-May-22 06:00N 44°58' W 001°15'0 0.5
2017-May-22 05:30N 44°58' W 001°16'0 0.0
2017-May-22 03:57N 44°58' W 001°16'0 0.0
2017-May-22 03:19N 44°58' W 001°16'0 0.0
2017-May-22 03:00N 44°58' W 001°16'0 0.0
2017-May-22 02:30N 44°58' W 001°16'0 0.0
2017-May-22 01:04N 44°58' W 001°16'0 0.0
2017-May-22 00:55N 44°58' W 001°16'0 0.0
2017-May-21 23:27N 44°58' W 001°16'0 0.0
2017-May-21 22:55N 44°58' W 001°16'0 0.0
2017-May-21 22:17N 44°58' W 001°16'0 0.0
2017-May-21 21:27N 44°58' W 001°16'0 0.0
2017-May-21 20:46N 44°58' W 001°16'0 0.0
2017-May-21 20:25N 44°58' W 001°16'0 0.0
2017-May-21 20:00N 44°58' W 001°16'0 0.0
2017-May-21 19:27N 44°58' W 001°16'1 0.1
2017-May-21 10:45N 44°58' W 001°15'1 0.4
2017-May-21 08:49N 44°59' W 001°14'1 3.0
2017-May-21 08:28N 44°58' W 001°16'1 2.4
2017-May-21 08:00N 44°59' W 001°15'2 2.9
2017-May-21 07:20N 45°01' W 001°15'3 1.9
2017-May-21 05:41N 44°58' W 001°16'1 2.6
2017-May-21 05:29N 44°59' W 001°16'0 0.1
2017-May-21 02:24N 44°59' W 001°16'0 0.0
2017-May-21 01:59N 44°59' W 001°16'0 0.0
2017-May-20 22:28N 44°59' W 001°16'0 0.0
2017-May-20 21:55N 44°59' W 001°16'0 0.0
2017-May-20 21:28N 44°59' W 001°16'0 0.0
2017-May-20 21:00N 44°59' W 001°16'0 0.0
2017-May-20 20:22N 44°59' W 001°16'0 0.0
2017-May-20 20:00N 44°59' W 001°16'0 0.0
2017-May-20 19:30N 44°59' W 001°16'0 0.0
2017-May-20 18:49N 44°59' W 001°16'0 0.0
2017-May-20 18:27N 44°59' W 001°16'0 0.0
2017-May-20 17:53N 44°59' W 001°16'1 0.7
2017-May-20 15:57N 44°58' W 001°15'1 1.2
2017-May-20 15:12N 44°58' W 001°16'6 3.3
2017-May-20 13:26N 44°52' W 001°16'4 8.5
2017-May-20 13:00N 44°49' W 001°17'4 8.5
2017-May-20 12:30N 44°44' W 001°18'4 8.4
2017-May-20 12:00N 44°40' W 001°18'4 8.5
2017-May-20 11:30N 44°36' W 001°18'2 4.6
2017-May-20 11:00N 44°35' W 001°15'4 7.7
2017-May-20 10:30N 44°39' W 001°14'3 6.0
2017-May-20 10:00N 44°40' W 001°10'1 2.6
2017-May-20 09:30N 44°39' W 001°09'0 0.0
2017-May-19 15:23N 44°39' W 001°09'0 0.0
2017-May-19 14:58N 44°39' W 001°09'0 0.0
2017-May-19 14:00N 44°39' W 001°09'0 0.0
2017-May-19 13:30N 44°39' W 001°09'0 0.0
2017-May-19 13:00N 44°39' W 001°09'0 0.0
2017-May-19 12:30N 44°39' W 001°09'0 0.0
2017-May-19 12:00N 44°39' W 001°09'0 0.0
2017-May-19 11:30N 44°39' W 001°09'0 0.0
2017-May-19 11:00N 44°39' W 001°09'0 0.0
2017-May-19 10:30N 44°39' W 001°09'0 0.0
2017-May-19 10:00N 44°39' W 001°09'0 0.0
2017-May-19 09:30N 44°39' W 001°09'0 0.0
2017-May-19 09:00N 44°39' W 001°09'0 0.0
2017-May-19 08:30N 44°39' W 001°09'0 0.0
2017-May-19 08:00N 44°39' W 001°09'0 0.0
2017-May-19 07:30N 44°39' W 001°09'0 0.0
2017-May-19 07:00N 44°39' W 001°09'0 0.0
2017-May-19 06:30N 44°39' W 001°09'0 0.0
2017-May-19 05:59N 44°39' W 001°09'0 0.0
2017-May-19 05:30N 44°39' W 001°09'0 0.0
2017-May-19 05:00N 44°39' W 001°09'0 0.0
2017-May-19 04:30N 44°39' W 001°09'0 0.0
2017-May-19 04:00N 44°39' W 001°09'0 0.0
2017-May-19 03:30N 44°39' W 001°09'0 0.0
2017-May-19 03:00N 44°39' W 001°09'0 0.0
2017-May-19 02:30N 44°39' W 001°09'0 0.0
2017-May-19 02:00N 44°39' W 001°09'0 0.0
2017-May-19 01:30N 44°39' W 001°09'0 0.0
2017-May-19 01:00N 44°39' W 001°09'0 0.0
2017-May-19 00:30N 44°39' W 001°09'0 0.0
2017-May-19 00:00N 44°39' W 001°09'0 0.0
2017-May-18 23:28N 44°39' W 001°09'0 0.2
2017-May-18 23:00N 44°39' W 001°09'0 0.5
2017-May-18 22:31N 44°40' W 001°09'3 6.6
2017-May-18 22:00N 44°39' W 001°14'4 8.4
2017-May-18 21:30N 44°35' W 001°15'3 5.1
2017-May-18 21:00N 44°37' W 001°18'5 9.2
2017-May-18 20:30N 44°41' W 001°17'3 6.1
2017-May-18 20:00N 44°44' W 001°17'4 8.9
2017-May-18 19:30N 44°49' W 001°16'4 8.9
2017-May-18 19:00N 44°53' W 001°15'7 1.3
2017-May-18 13:53N 44°60' W 001°15'10 0.5
2017-May-17 18:21N 44°50' W 001°14'3 9.0
2017-May-17 18:00N 44°46' W 001°15'4 9.0
2017-May-17 17:30N 44°42' W 001°16'6 0.3
2017-May-16 19:24N 44°39' W 001°09'0 0.0
2017-May-16 19:00N 44°39' W 001°09'0 0.0
2017-May-16 18:30N 44°39' W 001°09'0 0.0
2017-May-16 18:00N 44°39' W 001°09'0 0.1
2017-May-16 17:30N 44°39' W 001°09'0 0.0
2017-May-16 17:00N 44°39' W 001°09'0 0.6
2017-May-16 16:30N 44°40' W 001°09'4 7.7
2017-May-16 16:01N 44°38' W 001°14'5 9.1
2017-May-16 15:30N 44°34' W 001°17'4 8.8
2017-May-16 15:00N 44°38' W 001°17'9 9.0
2017-May-16 14:00N 44°47' W 001°15'5 9.0
2017-May-16 13:30N 44°52' W 001°15'5 9.0
2017-May-16 13:00N 44°56' W 001°14'3 4.7
2017-May-16 12:19N 44°60' W 001°14'1 2.7
2017-May-16 11:49N 44°58' W 001°14'0 1.2
2017-May-16 11:30N 44°58' W 001°15'1 1.7
2017-May-16 11:01N 44°59' W 001°15'1 1.0
2017-May-16 09:49N 44°58' W 001°15'1 2.7
2017-May-16 09:28N 44°59' W 001°15'3 1.2
2017-May-16 07:13N 45°01' W 001°13'1 3.2
2017-May-16 06:53N 45°02' W 001°12'1 1.0
2017-May-16 06:12N 45°01' W 001°12'0 0.1
2017-May-16 00:34N 45°01' W 001°13'0 0.0
2017-May-16 00:23N 45°01' W 001°13'0 0.0
2017-May-16 00:00N 45°01' W 001°13'3 0.6
2017-May-15 18:03N 44°58' W 001°13'0 1.2
2017-May-15 17:47N 44°58' W 001°13'0 0.2
2017-May-15 16:59N 44°58' W 001°13'0 0.0
2017-May-15 16:28N 44°58' W 001°13'0 0.0
2017-May-15 15:58N 44°58' W 001°13'0 0.0
2017-May-15 15:01N 44°58' W 001°13'0 0.0
2017-May-15 14:31N 44°58' W 001°13'1 1.2
2017-May-15 13:30N 44°58' W 001°15'1 1.0
2017-May-15 12:57N 44°58' W 001°15'0 0.8
2017-May-15 12:29N 44°58' W 001°15'1 0.3
2017-May-15 09:06N 44°59' W 001°15'0 3.1
2017-May-15 09:00N 44°59' W 001°15'2 2.9
2017-May-15 08:25N 45°01' W 001°15'0 0.3
2017-May-15 07:45N 45°01' W 001°15'1 2.4
2017-May-15 07:29N 45°00' W 001°15'1 2.0
2017-May-15 06:55N 44°59' W 001°15'1 2.7
2017-May-15 06:30N 44°58' W 001°15'1 0.1
2017-May-14 18:24N 44°59' W 001°15'1 0.9
2017-May-14 17:27N 44°58' W 001°15'3 3.4
2017-May-14 16:42N 44°60' W 001°13'1 4.7
2017-May-14 16:30N 45°00' W 001°14'12 8.3
2017-May-14 15:02N 45°02' W 001°31'0 1.7
2017-May-14 14:48N 45°02' W 001°31'0 0.2
2017-May-14 14:26N 45°02' W 001°32'3 2.6
2017-May-14 13:28N 45°04' W 001°33'4 8.7
2017-May-14 13:00N 45°08' W 001°35'5 8.3
2017-May-14 12:25N 45°13' W 001°37'4 8.5
2017-May-14 12:00N 45°16' W 001°38'20 5.3
2017-May-14 08:15N 45°23' W 001°11'0 0.3
2017-May-14 07:53N 45°23' W 001°11'  

Dump ship's entire track history